HALF-HOURLY OBSERVATIONS INDEX

075

Riverina - west

GRIFFITH AIRPORT AWS

Site: 075041
Alt: 134.0m
5km NE of GRIFFITH


  Time     Wind        Temp  DP   Baro     Rain since   Rain past  Vis(m), Cloud(base in m), Weather
  local        km/h                         9am  last   hr   10m    
Mon 11:00  WSW  7/ 11  29.1 10.7  1015.8    0.0   0.0   0.0   0.0   10000 
Mon 11:30   SW  9/ 15  30.4  8.7  1015.5    0.0   0.0   0.0   0.0   10000 
Mon 12:00    S  9/ 15  31.0  6.1  1015.3    0.0   0.0   0.0   0.0   10000 
Mon 12:30  SSW 13/ 20  31.8  4.6  1015.0    0.0   0.0   0.0   0.0   10000 
Mon 13:00  SSW 13/ 22  32.3  2.4  1014.8    0.0   0.0   0.0   0.0   10000 
Mon 13:30   SW 15/ 20  32.5  4.3  1014.7    0.0   0.0   0.0   0.0   10000 
Mon 14:00  SSE  9/ 17  33.3  5.8  1014.4    0.0   0.0   0.0   0.0   10000 
Mon 14:30  SSW 19/ 28  33.8  2.6  1014.1    0.0   0.0   0.0   0.0   10000 
Mon 15:00  SSW 19/ 26  33.1  3.0  1013.6    0.0   0.0   0.0   0.0   10000 
Mon 15:30    S 17/ 22  33.3  2.2  1013.2    0.0   0.0   0.0   0.0   10000 
Mon 16:00  SSW 13/ 17  33.4  2.3  1013.0    0.0   0.0   0.0   0.0   10000 
Mon 16:30    W 11/ 19  33.8  1.6  1012.6    0.0   0.0   0.0   0.0   10000 

HAY AIRPORT AWS

Site: 075019
Alt: 92.0m
5km S of HAY


  Time     Wind        Temp  DP   Baro     Rain since   Rain past  Vis(m), Cloud(base in m), Weather
  local        km/h                         9am  last   hr   10m    
Mon 11:00  SSE 17/ 22  27.5 10.7  1015.9    0.0   0.0   0.0   0.0   ----- 
Mon 11:30    S 13/ 20  28.0 10.2  1015.9    0.0   0.0   0.0   0.0   ----- 
Mon 12:00    S 13/ 17  29.7  9.3  1015.7    0.0   0.0   0.0   0.0   ----- 
Mon 12:30    S 13/ 20  29.8  8.8  1015.4    0.0   0.0   0.0   0.0   ----- 
Mon 13:00  SSW 13/ 20  32.6  7.4  1015.2    0.0   0.0   0.0   0.0   ----- 
Mon 13:30  SSW 13/ 24  32.2  6.4  1014.9    0.0   0.0   0.0   0.0   ----- 
Mon 14:00  WSW 11/ 20  34.6  7.6  1014.7    0.0   0.0   0.0   0.0   ----- 
Mon 14:30  WSW 17/ 28  33.1  4.8  1014.4    0.0   0.0   0.0   0.0   ----- 
Mon 15:00   SW 17/ 24  32.4  6.6  1014.2    0.0   0.0   0.0   0.0   ----- 
Mon 15:30   SW 11/ 20  32.8  4.6  1013.8    0.0   0.0   0.0   0.0   ----- 
Mon 16:00    W 13/ 26  33.9  5.4  1013.3    0.0   0.0   0.0   0.0   ----- 
Mon 16:30  WSW 17/ 28  32.2  4.1  1013.1    0.0   0.0   0.0   0.0   -----